sensor_id;sensor_type;location;lat;lon;timestamp;temperature;humidity
2409;DHT22;8463;48.094;7.970;2023-03-17T00:00:50;5.60;27.90
2409;DHT22;8463;48.094;7.970;2023-03-17T00:03:25;5.70;27.80
2409;DHT22;8463;48.094;7.970;2023-03-17T00:05:57;5.60;27.20
2409;DHT22;8463;48.094;7.970;2023-03-17T00:08:28;5.50;27.40
2409;DHT22;8463;48.094;7.970;2023-03-17T00:10:54;5.50;28.00
2409;DHT22;8463;48.094;7.970;2023-03-17T00:13:23;5.50;27.10
2409;DHT22;8463;48.094;7.970;2023-03-17T00:16:03;5.50;27.60
2409;DHT22;8463;48.094;7.970;2023-03-17T00:18:29;5.60;26.60
2409;DHT22;8463;48.094;7.970;2023-03-17T00:20:58;5.50;26.70
2409;DHT22;8463;48.094;7.970;2023-03-17T00:23:24;5.50;27.10
2409;DHT22;8463;48.094;7.970;2023-03-17T00:25:50;5.50;27.30
2409;DHT22;8463;48.094;7.970;2023-03-17T00:28:23;5.50;26.70
2409;DHT22;8463;48.094;7.970;2023-03-17T00:30:58;5.50;26.70
2409;DHT22;8463;48.094;7.970;2023-03-17T00:33:29;5.50;25.90
2409;DHT22;8463;48.094;7.970;2023-03-17T00:35:58;5.60;25.80
2409;DHT22;8463;48.094;7.970;2023-03-17T00:38:25;5.70;23.70
2409;DHT22;8463;48.094;7.970;2023-03-17T00:40:52;5.70;24.20
2409;DHT22;8463;48.094;7.970;2023-03-17T00:43:18;5.70;24.00
2409;DHT22;8463;48.094;7.970;2023-03-17T00:45:44;5.80;23.10
2409;DHT22;8463;48.094;7.970;2023-03-17T00:48:16;5.80;23.10
2409;DHT22;8463;48.094;7.970;2023-03-17T00:50:43;5.70;22.60
2409;DHT22;8463;48.094;7.970;2023-03-17T00:53:11;5.70;22.70
2409;DHT22;8463;48.094;7.970;2023-03-17T00:55:38;5.70;22.90
2409;DHT22;8463;48.094;7.970;2023-03-17T00:58:27;5.70;22.80
2409;DHT22;8463;48.094;7.970;2023-03-17T01:00:54;5.80;22.30
2409;DHT22;8463;48.094;7.970;2023-03-17T01:03:21;5.70;22.70
2409;DHT22;8463;48.094;7.970;2023-03-17T01:05:47;5.70;23.10
2409;DHT22;8463;48.094;7.970;2023-03-17T01:08:14;5.70;22.30
2409;DHT22;8463;48.094;7.970;2023-03-17T01:10:40;5.80;23.10
2409;DHT22;8463;48.094;7.970;2023-03-17T01:13:10;5.80;23.00
2409;DHT22;8463;48.094;7.970;2023-03-17T01:15:36;5.90;21.30
2409;DHT22;8463;48.094;7.970;2023-03-17T01:18:04;5.90;22.40
2409;DHT22;8463;48.094;7.970;2023-03-17T01:20:32;5.90;22.40
2409;DHT22;8463;48.094;7.970;2023-03-17T01:22:59;6.00;22.00
2409;DHT22;8463;48.094;7.970;2023-03-17T01:25:24;6.00;21.10
2409;DHT22;8463;48.094;7.970;2023-03-17T01:27:53;5.90;21.30
2409;DHT22;8463;48.094;7.970;2023-03-17T01:30:35;5.90;21.80
2409;DHT22;8463;48.094;7.970;2023-03-17T01:33:06;5.80;22.60
2409;DHT22;8463;48.094;7.970;2023-03-17T01:35:33;5.80;22.10
2409;DHT22;8463;48.094;7.970;2023-03-17T01:38:01;5.80;22.10
2409;DHT22;8463;48.094;7.970;2023-03-17T01:40:32;5.80;22.40
2409;DHT22;8463;48.094;7.970;2023-03-17T01:48:51;5.70;22.70
2409;DHT22;8463;48.094;7.970;2023-03-17T01:51:45;5.70;22.30
2409;DHT22;8463;48.094;7.970;2023-03-17T01:54:11;5.60;22.80
2409;DHT22;8463;48.094;7.970;2023-03-17T01:56:41;5.60;23.40
2409;DHT22;8463;48.094;7.970;2023-03-17T01:59:12;5.50;23.30
2409;DHT22;8463;48.094;7.970;2023-03-17T02:01:42;5.60;23.00
2409;DHT22;8463;48.094;7.970;2023-03-17T02:04:10;5.60;23.40
2409;DHT22;8463;48.094;7.970;2023-03-17T02:06:36;5.60;23.40
2409;DHT22;8463;48.094;7.970;2023-03-17T02:09:03;5.70;22.50
2409;DHT22;8463;48.094;7.970;2023-03-17T02:11:29;5.70;23.20
2409;DHT22;8463;48.094;7.970;2023-03-17T02:13:56;5.70;23.40
2409;DHT22;8463;48.094;7.970;2023-03-17T02:16:22;5.70;22.60
2409;DHT22;8463;48.094;7.970;2023-03-17T02:18:47;5.60;23.40
2409;DHT22;8463;48.094;7.970;2023-03-17T02:21:40;5.70;23.40
2409;DHT22;8463;48.094;7.970;2023-03-17T02:24:24;5.60;22.80
2409;DHT22;8463;48.094;7.970;2023-03-17T02:26:54;5.50;23.30
2409;DHT22;8463;48.094;7.970;2023-03-17T02:29:22;5.50;24.00
2409;DHT22;8463;48.094;7.970;2023-03-17T02:31:47;5.50;23.30
2409;DHT22;8463;48.094;7.970;2023-03-17T02:34:14;5.60;23.40
2409;DHT22;8463;48.094;7.970;2023-03-17T02:36:40;5.60;23.40
2409;DHT22;8463;48.094;7.970;2023-03-17T02:39:06;5.60;23.40
2409;DHT22;8463;48.094;7.970;2023-03-17T02:41:32;5.70;22.90
2409;DHT22;8463;48.094;7.970;2023-03-17T02:43:59;5.70;22.70
2409;DHT22;8463;48.094;7.970;2023-03-17T02:46:25;5.60;22.60
2409;DHT22;8463;48.094;7.970;2023-03-17T02:48:51;5.50;22.50
2409;DHT22;8463;48.094;7.970;2023-03-17T02:51:17;5.60;23.90
2409;DHT22;8463;48.094;7.970;2023-03-17T02:53:43;5.50;23.30
2409;DHT22;8463;48.094;7.970;2023-03-17T02:56:08;5.40;23.70
2409;DHT22;8463;48.094;7.970;2023-03-17T02:58:35;5.40;24.20
2409;DHT22;8463;48.094;7.970;2023-03-17T03:01:00;5.20;25.10
2409;DHT22;8463;48.094;7.970;2023-03-17T03:03:26;5.20;25.90
2409;DHT22;8463;48.094;7.970;2023-03-17T03:05:52;5.20;25.60
2409;DHT22;8463;48.094;7.970;2023-03-17T03:08:18;5.10;26.30
2409;DHT22;8463;48.094;7.970;2023-03-17T03:10:44;5.20;26.40
2409;DHT22;8463;48.094;7.970;2023-03-17T03:13:10;5.20;25.50
2409;DHT22;8463;48.094;7.970;2023-03-17T03:15:39;5.20;25.70
2409;DHT22;8463;48.094;7.970;2023-03-17T03:18:04;5.20;25.50
2409;DHT22;8463;48.094;7.970;2023-03-17T03:20:30;5.20;25.90
2409;DHT22;8463;48.094;7.970;2023-03-17T03:22:56;5.00;27.30
2409;DHT22;8463;48.094;7.970;2023-03-17T03:25:22;5.00;26.10
2409;DHT22;8463;48.094;7.970;2023-03-17T03:27:48;5.00;26.60
2409;DHT22;8463;48.094;7.970;2023-03-17T03:30:13;5.00;26.80
2409;DHT22;8463;48.094;7.970;2023-03-17T03:32:39;5.00;26.60
2409;DHT22;8463;48.094;7.970;2023-03-17T03:35:05;5.10;26.40
2409;DHT22;8463;48.094;7.970;2023-03-17T03:37:31;5.10;25.70
2409;DHT22;8463;48.094;7.970;2023-03-17T03:39:56;5.20;24.80
2409;DHT22;8463;48.094;7.970;2023-03-17T03:42:22;5.20;24.70
2409;DHT22;8463;48.094;7.970;2023-03-17T03:44:50;5.20;24.70
2409;DHT22;8463;48.094;7.970;2023-03-17T03:47:15;5.20;24.70
2409;DHT22;8463;48.094;7.970;2023-03-17T03:49:41;5.10;24.40
2409;DHT22;8463;48.094;7.970;2023-03-17T03:52:07;5.10;25.30
2409;DHT22;8463;48.094;7.970;2023-03-17T03:54:33;5.00;25.80
2409;DHT22;8463;48.094;7.970;2023-03-17T03:56:59;4.90;26.20
2409;DHT22;8463;48.094;7.970;2023-03-17T03:59:24;4.90;27.20
2409;DHT22;8463;48.094;7.970;2023-03-17T04:01:50;4.90;27.20
2409;DHT22;8463;48.094;7.970;2023-03-17T04:04:16;4.90;27.40
2409;DHT22;8463;48.094;7.970;2023-03-17T04:06:42;5.00;26.80
2409;DHT22;8463;48.094;7.970;2023-03-17T04:09:07;5.00;26.10
2409;DHT22;8463;48.094;7.970;2023-03-17T04:11:33;5.00;26.60
2409;DHT22;8463;48.094;7.970;2023-03-17T04:13:59;5.00;25.60
2409;DHT22;8463;48.094;7.970;2023-03-17T04:16:25;4.90;26.40
2409;DHT22;8463;48.094;7.970;2023-03-17T04:18:51;4.70;26.70
2409;DHT22;8463;48.094;7.970;2023-03-17T04:21:16;4.70;27.50
2409;DHT22;8463;48.094;7.970;2023-03-17T04:23:44;4.80;27.00
2409;DHT22;8463;48.094;7.970;2023-03-17T04:26:10;4.80;26.90
2409;DHT22;8463;48.094;7.970;2023-03-17T04:28:36;4.80;26.50
2409;DHT22;8463;48.094;7.970;2023-03-17T04:31:02;4.80;26.30
2409;DHT22;8463;48.094;7.970;2023-03-17T04:33:30;4.80;26.50
2409;DHT22;8463;48.094;7.970;2023-03-17T04:35:58;4.90;26.10
2409;DHT22;8463;48.094;7.970;2023-03-17T04:38:24;4.90;25.80
2409;DHT22;8463;48.094;7.970;2023-03-17T04:40:49;4.90;25.60
2409;DHT22;8463;48.094;7.970;2023-03-17T04:43:16;4.80;25.70
2409;DHT22;8463;48.094;7.970;2023-03-17T04:45:42;4.70;26.30
2409;DHT22;8463;48.094;7.970;2023-03-17T04:48:08;4.70;26.10
2409;DHT22;8463;48.094;7.970;2023-03-17T04:50:33;4.70;26.40
2409;DHT22;8463;48.094;7.970;2023-03-17T04:53:00;4.70;27.20
2409;DHT22;8463;48.094;7.970;2023-03-17T04:55:25;4.60;26.30
2409;DHT22;8463;48.094;7.970;2023-03-17T04:57:54;4.70;26.60
2409;DHT22;8463;48.094;7.970;2023-03-17T05:00:20;4.60;26.30
2409;DHT22;8463;48.094;7.970;2023-03-17T05:02:45;4.60;27.00
2409;DHT22;8463;48.094;7.970;2023-03-17T05:05:11;4.70;27.20
2409;DHT22;8463;48.094;7.970;2023-03-17T05:07:37;4.70;26.70
2409;DHT22;8463;48.094;7.970;2023-03-17T05:10:03;4.80;26.50
2409;DHT22;8463;48.094;7.970;2023-03-17T05:12:29;4.70;26.00
2409;DHT22;8463;48.094;7.970;2023-03-17T05:14:55;4.80;25.90
2409;DHT22;8463;48.094;7.970;2023-03-17T05:17:21;4.70;25.80
2409;DHT22;8463;48.094;7.970;2023-03-17T05:19:46;4.70;25.70
2409;DHT22;8463;48.094;7.970;2023-03-17T05:22:12;4.70;25.70
2409;DHT22;8463;48.094;7.970;2023-03-17T05:24:38;4.70;26.00
2409;DHT22;8463;48.094;7.970;2023-03-17T05:27:03;4.70;26.10
2409;DHT22;8463;48.094;7.970;2023-03-17T05:29:29;4.70;25.80
2409;DHT22;8463;48.094;7.970;2023-03-17T05:31:55;4.80;25.50
2409;DHT22;8463;48.094;7.970;2023-03-17T05:34:20;4.70;26.20
2409;DHT22;8463;48.094;7.970;2023-03-17T05:36:46;4.60;25.50
2409;DHT22;8463;48.094;7.970;2023-03-17T05:39:11;4.60;26.10
2409;DHT22;8463;48.094;7.970;2023-03-17T05:41:37;4.60;25.90
2409;DHT22;8463;48.094;7.970;2023-03-17T05:44:03;4.50;25.70
2409;DHT22;8463;48.094;7.970;2023-03-17T05:46:29;4.60;26.00
2409;DHT22;8463;48.094;7.970;2023-03-17T05:48:56;4.60;27.10
2409;DHT22;8463;48.094;7.970;2023-03-17T05:51:22;4.70;27.10
2409;DHT22;8463;48.094;7.970;2023-03-17T05:53:48;4.50;26.00
2409;DHT22;8463;48.094;7.970;2023-03-17T05:56:13;4.50;26.40
2409;DHT22;8463;48.094;7.970;2023-03-17T05:58:39;5.30;68.20
2409;DHT22;8463;48.094;7.970;2023-03-17T06:01:05;6.20;73.00
2409;DHT22;8463;48.094;7.970;2023-03-17T06:03:30;6.20;52.80
2409;DHT22;8463;48.094;7.970;2023-03-17T06:05:56;5.70;35.20
2409;DHT22;8463;48.094;7.970;2023-03-17T06:08:22;5.40;35.30
2409;DHT22;8463;48.094;7.970;2023-03-17T06:10:47;5.40;36.90
2409;DHT22;8463;48.094;7.970;2023-03-17T06:13:13;5.20;37.40
2409;DHT22;8463;48.094;7.970;2023-03-17T06:15:39;5.10;36.90
2409;DHT22;8463;48.094;7.970;2023-03-17T06:18:07;5.20;38.00
2409;DHT22;8463;48.094;7.970;2023-03-17T06:20:33;5.10;36.80
2409;DHT22;8463;48.094;7.970;2023-03-17T06:22:59;5.10;36.00
2409;DHT22;8463;48.094;7.970;2023-03-17T06:25:25;5.00;37.00
2409;DHT22;8463;48.094;7.970;2023-03-17T06:27:51;5.10;35.60
2409;DHT22;8463;48.094;7.970;2023-03-17T06:30:19;4.90;35.40
2409;DHT22;8463;48.094;7.970;2023-03-17T06:32:46;4.80;33.80
2409;DHT22;8463;48.094;7.970;2023-03-17T06:35:11;4.80;34.50
2409;DHT22;8463;48.094;7.970;2023-03-17T06:37:37;4.80;34.50
2409;DHT22;8463;48.094;7.970;2023-03-17T06:40:04;4.80;34.60
2409;DHT22;8463;48.094;7.970;2023-03-17T06:42:33;4.90;34.40
2409;DHT22;8463;48.094;7.970;2023-03-17T06:44:59;4.80;33.70
2409;DHT22;8463;48.094;7.970;2023-03-17T06:47:25;4.90;34.10
2409;DHT22;8463;48.094;7.970;2023-03-17T06:49:51;4.90;33.90
2409;DHT22;8463;48.094;7.970;2023-03-17T06:52:16;4.90;34.20
2409;DHT22;8463;48.094;7.970;2023-03-17T06:54:42;5.00;35.30
2409;DHT22;8463;48.094;7.970;2023-03-17T06:57:09;5.00;35.80
2409;DHT22;8463;48.094;7.970;2023-03-17T06:59:34;5.20;34.10
2409;DHT22;8463;48.094;7.970;2023-03-17T07:02:00;5.40;31.70
2409;DHT22;8463;48.094;7.970;2023-03-17T07:04:26;5.40;31.90
2409;DHT22;8463;48.094;7.970;2023-03-17T07:06:52;5.50;31.50
2409;DHT22;8463;48.094;7.970;2023-03-17T07:09:18;5.60;30.70
2409;DHT22;8463;48.094;7.970;2023-03-17T07:11:43;5.90;30.90
2409;DHT22;8463;48.094;7.970;2023-03-17T07:14:09;6.00;30.00
2409;DHT22;8463;48.094;7.970;2023-03-17T07:16:35;6.20;28.30
2409;DHT22;8463;48.094;7.970;2023-03-17T07:19:01;6.30;26.10
2409;DHT22;8463;48.094;7.970;2023-03-17T07:21:27;6.30;26.80
2409;DHT22;8463;48.094;7.970;2023-03-17T07:23:53;6.40;27.60
2409;DHT22;8463;48.094;7.970;2023-03-17T07:26:19;6.40;26.80
2409;DHT22;8463;48.094;7.970;2023-03-17T07:28:44;6.50;25.60
2409;DHT22;8463;48.094;7.970;2023-03-17T07:31:11;6.50;25.40
2409;DHT22;8463;48.094;7.970;2023-03-17T07:33:39;6.50;26.20
2409;DHT22;8463;48.094;7.970;2023-03-17T07:36:05;6.50;26.40
2409;DHT22;8463;48.094;7.970;2023-03-17T07:38:32;6.60;27.50
2409;DHT22;8463;48.094;7.970;2023-03-17T07:40:57;6.80;27.60
2409;DHT22;8463;48.094;7.970;2023-03-17T07:43:24;7.00;29.40
2409;DHT22;8463;48.094;7.970;2023-03-17T07:45:50;7.40;27.50
2409;DHT22;8463;48.094;7.970;2023-03-17T07:48:16;7.60;24.40
2409;DHT22;8463;48.094;7.970;2023-03-17T07:50:42;7.80;21.50
2409;DHT22;8463;48.094;7.970;2023-03-17T07:53:09;7.80;21.20
2409;DHT22;8463;48.094;7.970;2023-03-17T07:55:35;7.90;21.20
2409;DHT22;8463;48.094;7.970;2023-03-17T07:58:03;7.90;20.50
2409;DHT22;8463;48.094;7.970;2023-03-17T08:00:29;7.80;21.60
2409;DHT22;8463;48.094;7.970;2023-03-17T08:02:55;8.00;19.00
2409;DHT22;8463;48.094;7.970;2023-03-17T08:05:21;8.00;19.50
2409;DHT22;8463;48.094;7.970;2023-03-17T08:07:46;8.30;20.20
2409;DHT22;8463;48.094;7.970;2023-03-17T08:10:13;8.50;17.90
2409;DHT22;8463;48.094;7.970;2023-03-17T08:12:39;8.60;17.90
2409;DHT22;8463;48.094;7.970;2023-03-17T08:15:08;8.80;18.10
2409;DHT22;8463;48.094;7.970;2023-03-17T08:17:35;8.80;16.40
2409;DHT22;8463;48.094;7.970;2023-03-17T08:20:02;8.90;16.50
2409;DHT22;8463;48.094;7.970;2023-03-17T08:22:29;9.10;16.50
2409;DHT22;8463;48.094;7.970;2023-03-17T08:24:55;9.40;16.20
2409;DHT22;8463;48.094;7.970;2023-03-17T08:27:20;9.90;14.60
2409;DHT22;8463;48.094;7.970;2023-03-17T08:29:46;9.90;14.90
2409;DHT22;8463;48.094;7.970;2023-03-17T08:32:13;10.30;10.50
2409;DHT22;8463;48.094;7.970;2023-03-17T08:34:39;10.30;10.80
2409;DHT22;8463;48.094;7.970;2023-03-17T08:37:05;10.40;10.70
2409;DHT22;8463;48.094;7.970;2023-03-17T08:39:33;10.60;10.80
2409;DHT22;8463;48.094;7.970;2023-03-17T08:41:59;11.00;7.90
2409;DHT22;8463;48.094;7.970;2023-03-17T08:44:25;11.00;7.90
2409;DHT22;8463;48.094;7.970;2023-03-17T08:46:50;11.30;6.00
2409;DHT22;8463;48.094;7.970;2023-03-17T08:49:16;11.70;3.30
2409;DHT22;8463;48.094;7.970;2023-03-17T08:51:43;11.70;3.70
2409;DHT22;8463;48.094;7.970;2023-03-17T08:54:09;11.90;3.90
2409;DHT22;8463;48.094;7.970;2023-03-17T08:56:36;12.00;1.50
2409;DHT22;8463;48.094;7.970;2023-03-17T08:59:04;12.00;1.90
2409;DHT22;8463;48.094;7.970;2023-03-17T09:01:30;11.90;1.00
2409;DHT22;8463;48.094;7.970;2023-03-17T09:03:56;11.80;1.00
2409;DHT22;8463;48.094;7.970;2023-03-17T09:06:23;11.60;1.00
2409;DHT22;8463;48.094;7.970;2023-03-17T09:08:50;11.50;1.00
2409;DHT22;8463;48.094;7.970;2023-03-17T09:11:22;11.70;4.20
2409;DHT22;8463;48.094;7.970;2023-03-17T09:13:48;12.00;1.00
2409;DHT22;8463;48.094;7.970;2023-03-17T09:16:14;12.30;1.00
2409;DHT22;8463;48.094;7.970;2023-03-17T09:18:41;12.30;1.00
2409;DHT22;8463;48.094;7.970;2023-03-17T09:21:07;12.50;1.00
2409;DHT22;8463;48.094;7.970;2023-03-17T09:23:34;12.90;1.00
2409;DHT22;8463;48.094;7.970;2023-03-17T09:26:00;13.20;1.00
2409;DHT22;8463;48.094;7.970;2023-03-17T09:28:26;13.30;1.00
2409;DHT22;8463;48.094;7.970;2023-03-17T09:30:57;13.50;1.00
2409;DHT22;8463;48.094;7.970;2023-03-17T09:33:22;13.70;1.00
2409;DHT22;8463;48.094;7.970;2023-03-17T09:35:50;13.50;1.00
2409;DHT22;8463;48.094;7.970;2023-03-17T09:38:16;13.50;1.00
2409;DHT22;8463;48.094;7.970;2023-03-17T09:49:02;13.10;1.00
2409;DHT22;8463;48.094;7.970;2023-03-17T09:51:30;13.20;1.00
2409;DHT22;8463;48.094;7.970;2023-03-17T09:54:10;13.30;1.00
2409;DHT22;8463;48.094;7.970;2023-03-17T09:56:42;13.50;1.00
2409;DHT22;8463;48.094;7.970;2023-03-17T09:59:23;13.70;1.00
2409;DHT22;8463;48.094;7.970;2023-03-17T10:01:52;13.70;1.00
2409;DHT22;8463;48.094;7.970;2023-03-17T10:04:17;14.00;1.00
2409;DHT22;8463;48.094;7.970;2023-03-17T10:06:48;14.50;1.00
2409;DHT22;8463;48.094;7.970;2023-03-17T10:11:49;14.80;1.00
2409;DHT22;8463;48.094;7.970;2023-03-17T10:14:37;14.70;1.00
2409;DHT22;8463;48.094;7.970;2023-03-17T10:17:21;14.80;1.00
2409;DHT22;8463;48.094;7.970;2023-03-17T10:19:58;14.90;1.00
2409;DHT22;8463;48.094;7.970;2023-03-17T10:22:31;15.10;1.00
2409;DHT22;8463;48.094;7.970;2023-03-17T10:25:05;15.10;1.00
2409;DHT22;8463;48.094;7.970;2023-03-17T10:27:35;14.90;1.00
2409;DHT22;8463;48.094;7.970;2023-03-17T10:30:02;14.80;1.00
2409;DHT22;8463;48.094;7.970;2023-03-17T10:32:29;14.80;1.00
2409;DHT22;8463;48.094;7.970;2023-03-17T10:34:56;14.70;1.00
2409;DHT22;8463;48.094;7.970;2023-03-17T10:37:23;14.60;1.00
2409;DHT22;8463;48.094;7.970;2023-03-17T10:39:53;14.50;1.00
2409;DHT22;8463;48.094;7.970;2023-03-17T10:42:28;14.50;1.00
2409;DHT22;8463;48.094;7.970;2023-03-17T10:45:21;14.60;1.00
2409;DHT22;8463;48.094;7.970;2023-03-17T10:47:48;14.80;1.00
2409;DHT22;8463;48.094;7.970;2023-03-17T10:50:28;15.00;1.00
2409;DHT22;8463;48.094;7.970;2023-03-17T10:55:38;15.10;1.00
2409;DHT22;8463;48.094;7.970;2023-03-17T10:58:16;15.20;1.00
2409;DHT22;8463;48.094;7.970;2023-03-17T11:01:04;15.60;1.00
2409;DHT22;8463;48.094;7.970;2023-03-17T11:03:38;15.80;1.00
2409;DHT22;8463;48.094;7.970;2023-03-17T11:06:06;15.90;1.00
2409;DHT22;8463;48.094;7.970;2023-03-17T11:08:46;16.00;1.00
2409;DHT22;8463;48.094;7.970;2023-03-17T11:11:29;16.10;1.00
2409;DHT22;8463;48.094;7.970;2023-03-17T11:14:12;16.40;1.00
2409;DHT22;8463;48.094;7.970;2023-03-17T11:16:59;16.50;1.00
2409;DHT22;8463;48.094;7.970;2023-03-17T11:19:30;16.90;1.00
2409;DHT22;8463;48.094;7.970;2023-03-17T11:22:14;17.00;1.00
2409;DHT22;8463;48.094;7.970;2023-03-17T11:24:57;17.00;1.00
2409;DHT22;8463;48.094;7.970;2023-03-17T11:27:31;17.10;1.00
2409;DHT22;8463;48.094;7.970;2023-03-17T11:30:26;17.10;1.00
2409;DHT22;8463;48.094;7.970;2023-03-17T11:33:17;17.10;1.00
2409;DHT22;8463;48.094;7.970;2023-03-17T11:35:59;17.30;1.00
2409;DHT22;8463;48.094;7.970;2023-03-17T11:38:47;17.40;1.00
2409;DHT22;8463;48.094;7.970;2023-03-17T11:47:05;16.90;1.00
2409;DHT22;8463;48.094;7.970;2023-03-17T11:49:37;16.80;1.00
2409;DHT22;8463;48.094;7.970;2023-03-17T11:55:28;16.80;1.00
2409;DHT22;8463;48.094;7.970;2023-03-17T11:58:05;16.60;1.00
2409;DHT22;8463;48.094;7.970;2023-03-17T12:00:57;16.60;1.00
2409;DHT22;8463;48.094;7.970;2023-03-17T12:03:29;16.70;1.00
2409;DHT22;8463;48.094;7.970;2023-03-17T12:06:00;16.80;1.00
2409;DHT22;8463;48.094;7.970;2023-03-17T12:08:34;17.00;1.00
2409;DHT22;8463;48.094;7.970;2023-03-17T12:11:06;16.90;1.00
2409;DHT22;8463;48.094;7.970;2023-03-17T12:13:37;17.10;1.00
2409;DHT22;8463;48.094;7.970;2023-03-17T12:21:58;17.30;1.00
2409;DHT22;8463;48.094;7.970;2023-03-17T12:27:31;17.30;1.00
2409;DHT22;8463;48.094;7.970;2023-03-17T12:30:06;17.30;1.00
2409;DHT22;8463;48.094;7.970;2023-03-17T12:32:59;17.30;1.00
2409;DHT22;8463;48.094;7.970;2023-03-17T12:35:32;17.30;1.00
2409;DHT22;8463;48.094;7.970;2023-03-17T12:38:04;17.20;1.00
2409;DHT22;8463;48.094;7.970;2023-03-17T12:40:38;17.30;1.00
2409;DHT22;8463;48.094;7.970;2023-03-17T12:53:44;18.00;1.00
2409;DHT22;8463;48.094;7.970;2023-03-17T12:56:26;18.00;1.00
2409;DHT22;8463;48.094;7.970;2023-03-17T12:58:57;18.00;1.00
2409;DHT22;8463;48.094;7.970;2023-03-17T13:01:46;17.80;1.00
2409;DHT22;8463;48.094;7.970;2023-03-17T13:07:13;17.90;1.00
2409;DHT22;8463;48.094;7.970;2023-03-17T13:20:42;17.60;1.00
2409;DHT22;8463;48.094;7.970;2023-03-17T13:48:53;17.60;1.00
2409;DHT22;8463;48.094;7.970;2023-03-17T13:51:20;17.60;1.00
2409;DHT22;8463;48.094;7.970;2023-03-17T13:53:51;17.50;1.00
2409;DHT22;8463;48.094;7.970;2023-03-17T14:01:39;17.90;1.00
2409;DHT22;8463;48.094;7.970;2023-03-17T14:04:14;17.90;1.00
2409;DHT22;8463;48.094;7.970;2023-03-17T14:06:41;18.10;1.00
2409;DHT22;8463;48.094;7.970;2023-03-17T14:09:36;18.00;1.00
2409;DHT22;8463;48.094;7.970;2023-03-17T14:12:14;18.10;1.00
2409;DHT22;8463;48.094;7.970;2023-03-17T14:17:18;18.10;1.00
2409;DHT22;8463;48.094;7.970;2023-03-17T14:20:20;18.10;1.00
2409;DHT22;8463;48.094;7.970;2023-03-17T14:23:01;18.20;1.00
2409;DHT22;8463;48.094;7.970;2023-03-17T14:25:35;18.20;1.00
2409;DHT22;8463;48.094;7.970;2023-03-17T14:28:07;18.20;1.00
2409;DHT22;8463;48.094;7.970;2023-03-17T14:30:36;18.20;1.00
2409;DHT22;8463;48.094;7.970;2023-03-17T14:35:41;18.20;1.00
2409;DHT22;8463;48.094;7.970;2023-03-17T14:38:20;18.10;1.00
2409;DHT22;8463;48.094;7.970;2023-03-17T14:40:48;18.10;1.00
2409;DHT22;8463;48.094;7.970;2023-03-17T14:43:14;18.20;1.00
2409;DHT22;8463;48.094;7.970;2023-03-17T14:48:13;18.20;1.00
2409;DHT22;8463;48.094;7.970;2023-03-17T14:50:49;18.20;1.00
2409;DHT22;8463;48.094;7.970;2023-03-17T14:53:17;18.20;1.00
2409;DHT22;8463;48.094;7.970;2023-03-17T14:55:43;18.20;1.00
2409;DHT22;8463;48.094;7.970;2023-03-17T14:58:23;18.20;1.00
2409;DHT22;8463;48.094;7.970;2023-03-17T15:01:06;18.30;1.00
2409;DHT22;8463;48.094;7.970;2023-03-17T15:03:38;18.20;1.00
2409;DHT22;8463;48.094;7.970;2023-03-17T15:08:43;18.30;1.00
2409;DHT22;8463;48.094;7.970;2023-03-17T15:11:22;18.30;1.00
2409;DHT22;8463;48.094;7.970;2023-03-17T15:13:53;18.30;1.00
2409;DHT22;8463;48.094;7.970;2023-03-17T15:16:23;18.30;1.00
2409;DHT22;8463;48.094;7.970;2023-03-17T15:19:24;18.20;1.00
2409;DHT22;8463;48.094;7.970;2023-03-17T15:21:53;18.20;1.00
2409;DHT22;8463;48.094;7.970;2023-03-17T15:24:40;18.20;1.00
2409;DHT22;8463;48.094;7.970;2023-03-17T15:27:17;18.20;1.00
2409;DHT22;8463;48.094;7.970;2023-03-17T15:29:44;18.20;1.00
2409;DHT22;8463;48.094;7.970;2023-03-17T15:32:17;18.20;1.00
2409;DHT22;8463;48.094;7.970;2023-03-17T15:34:45;18.20;1.00
2409;DHT22;8463;48.094;7.970;2023-03-17T15:39:40;18.10;1.00
2409;DHT22;8463;48.094;7.970;2023-03-17T15:42:06;18.00;1.00
2409;DHT22;8463;48.094;7.970;2023-03-17T15:44:32;17.90;1.00
2409;DHT22;8463;48.094;7.970;2023-03-17T15:46:58;17.90;1.00
2409;DHT22;8463;48.094;7.970;2023-03-17T15:49:24;17.70;1.00
2409;DHT22;8463;48.094;7.970;2023-03-17T15:54:17;17.50;1.00
2409;DHT22;8463;48.094;7.970;2023-03-17T15:56:43;17.50;1.00
2409;DHT22;8463;48.094;7.970;2023-03-17T15:59:09;17.40;1.00
2409;DHT22;8463;48.094;7.970;2023-03-17T16:01:35;17.40;1.00
2409;DHT22;8463;48.094;7.970;2023-03-17T16:04:03;17.30;1.00
2409;DHT22;8463;48.094;7.970;2023-03-17T16:06:29;17.20;1.00
2409;DHT22;8463;48.094;7.970;2023-03-17T16:08:55;17.20;1.00
2409;DHT22;8463;48.094;7.970;2023-03-17T16:11:22;17.10;1.00
2409;DHT22;8463;48.094;7.970;2023-03-17T16:13:53;17.10;1.00
2409;DHT22;8463;48.094;7.970;2023-03-17T16:18:53;17.10;1.00
2409;DHT22;8463;48.094;7.970;2023-03-17T16:21:21;17.10;1.00
2409;DHT22;8463;48.094;7.970;2023-03-17T16:23:47;17.10;1.00
2409;DHT22;8463;48.094;7.970;2023-03-17T16:26:15;17.00;1.00
2409;DHT22;8463;48.094;7.970;2023-03-17T16:28:42;17.00;1.00
2409;DHT22;8463;48.094;7.970;2023-03-17T16:31:21;16.90;1.00
2409;DHT22;8463;48.094;7.970;2023-03-17T16:33:51;16.80;1.00
2409;DHT22;8463;48.094;7.970;2023-03-17T16:36:18;16.80;1.00
2409;DHT22;8463;48.094;7.970;2023-03-17T16:38:45;16.80;1.00
2409;DHT22;8463;48.094;7.970;2023-03-17T16:41:19;16.60;1.00
2409;DHT22;8463;48.094;7.970;2023-03-17T16:43:52;16.70;1.00
2409;DHT22;8463;48.094;7.970;2023-03-17T16:46:20;16.60;1.00
2409;DHT22;8463;48.094;7.970;2023-03-17T16:48:47;16.60;1.00
2409;DHT22;8463;48.094;7.970;2023-03-17T16:53:39;16.50;1.00
2409;DHT22;8463;48.094;7.970;2023-03-17T16:56:11;16.50;1.00
2409;DHT22;8463;48.094;7.970;2023-03-17T16:58:38;16.40;1.00
2409;DHT22;8463;48.094;7.970;2023-03-17T17:01:17;16.40;1.00
2409;DHT22;8463;48.094;7.970;2023-03-17T17:03:46;16.30;1.00
2409;DHT22;8463;48.094;7.970;2023-03-17T17:06:13;16.20;1.00
2409;DHT22;8463;48.094;7.970;2023-03-17T17:08:40;16.20;1.00
2409;DHT22;8463;48.094;7.970;2023-03-17T17:11:06;16.10;1.00
2409;DHT22;8463;48.094;7.970;2023-03-17T17:15:59;15.70;1.00
2409;DHT22;8463;48.094;7.970;2023-03-17T17:18:25;15.70;1.00
2409;DHT22;8463;48.094;7.970;2023-03-17T17:20:52;15.80;1.00
2409;DHT22;8463;48.094;7.970;2023-03-17T17:23:20;15.80;1.00
2409;DHT22;8463;48.094;7.970;2023-03-17T17:25:47;15.70;1.00
2409;DHT22;8463;48.094;7.970;2023-03-17T17:28:14;15.60;1.00
2409;DHT22;8463;48.094;7.970;2023-03-17T17:30:41;15.60;1.00
2409;DHT22;8463;48.094;7.970;2023-03-17T17:33:10;15.50;1.00
2409;DHT22;8463;48.094;7.970;2023-03-17T17:35:36;15.20;1.00
2409;DHT22;8463;48.094;7.970;2023-03-17T17:38:03;15.20;1.00
2409;DHT22;8463;48.094;7.970;2023-03-17T17:40:31;15.10;1.00
2409;DHT22;8463;48.094;7.970;2023-03-17T17:42:57;15.10;1.00
2409;DHT22;8463;48.094;7.970;2023-03-17T17:45:24;15.00;1.00
2409;DHT22;8463;48.094;7.970;2023-03-17T17:47:50;14.90;1.00
2409;DHT22;8463;48.094;7.970;2023-03-17T17:50:25;14.80;1.00
2409;DHT22;8463;48.094;7.970;2023-03-17T17:52:52;14.70;1.00
2409;DHT22;8463;48.094;7.970;2023-03-17T17:55:18;14.70;1.00
2409;DHT22;8463;48.094;7.970;2023-03-17T17:57:44;14.60;1.00
2409;DHT22;8463;48.094;7.970;2023-03-17T18:00:15;14.50;1.00
2409;DHT22;8463;48.094;7.970;2023-03-17T18:02:41;14.60;1.00
2409;DHT22;8463;48.094;7.970;2023-03-17T18:05:07;14.60;1.00
2409;DHT22;8463;48.094;7.970;2023-03-17T18:07:34;14.50;1.00
2409;DHT22;8463;48.094;7.970;2023-03-17T18:12:26;14.40;1.00
2409;DHT22;8463;48.094;7.970;2023-03-17T18:14:52;14.40;1.00
2409;DHT22;8463;48.094;7.970;2023-03-17T18:17:18;14.40;1.00
2409;DHT22;8463;48.094;7.970;2023-03-17T18:19:48;14.30;1.00
2409;DHT22;8463;48.094;7.970;2023-03-17T18:22:13;14.30;1.00
2409;DHT22;8463;48.094;7.970;2023-03-17T18:24:39;14.10;1.00
2409;DHT22;8463;48.094;7.970;2023-03-17T18:27:05;14.10;1.00